Terminal Aerodrome Forecast
Issued by NWS

Home | Current Version | Previous Version | Text Only | Print | Product List | Glossary Off
Versions: 1 2 3 4 5 6 7 8 9 10 11 12 13 14 15 16 17 18 19 20 21 22

000
FTUS43 KBIS 210400 AAD
TAFMOT
TAF AMD
KMOT 210451Z 2105/2124 00000KT P6SM VCSH SCT100
      TEMPO 2105/2107 3SM RA BKN050
     FM211600 33007KT P6SM SCT035
     FM212300 35008KT P6SM BKN060=

USA.gov is the U.S. government's official web portal to all federal, state and local government web resources and services.